Time;durP1;ratioP1;P1;durP2;ratioP2;P2;SDS_P1;SDS_P2;PMS_P1;PMS_P2;Temp;Humidity;BMP_temperature;BMP_pressure;BME280_temperature;BME280_humidity;BME280_pressure;Samples;Min_cycle;Max_cycle;Signal;HPM_P1;HPM_P2
2021/12/24 00:01:39;;;;;;;49.70;26.48;;;-4.10;99.90;;;;;;5290872;28;20123;-73
2021/12/24 00:04:10;;;;;;;55.45;29.00;;;-3.70;99.90;;;;;;5291663;28;20397;-79
2021/12/24 00:06:40;;;;;;;57.13;30.70;;;-3.60;99.90;;;;;;5291848;28;20027;-72
2021/12/24 00:09:20;;;;;;;53.40;29.60;;;-3.70;99.90;;;;;;5291570;28;20015;-72
2021/12/24 00:11:56;;;;;;;53.47;27.95;;;-3.50;99.90;;;;;;5291598;28;20465;-72
2021/12/24 00:14:28;;;;;;;50.88;28.05;;;-3.70;99.90;;;;;;5291384;28;20134;-72
2021/12/24 00:17:04;;;;;;;48.78;25.75;;;-3.60;99.90;;;;;;5291611;28;20102;-72
2021/12/24 00:19:49;;;;;;;53.80;29.13;;;-4.00;99.90;;;;;;5291546;28;20081;-72
2021/12/24 00:36:07;;;;;;;46.95;25.35;;;-3.50;99.90;;;;;;5291337;28;20027;-73
2021/12/24 00:38:38;;;;;;;48.30;25.88;;;-3.40;99.90;;;;;;5291116;28;20028;-73
2021/12/24 00:41:09;;;;;;;47.38;23.75;;;-3.20;99.90;;;;;;5289745;28;20031;-73
2021/12/24 00:43:39;;;;;;;50.15;25.30;;;-3.20;99.90;;;;;;5291052;28;20451;-73
2021/12/24 00:46:10;;;;;;;49.65;25.40;;;-3.20;99.90;;;;;;5290975;28;20055;-77
2021/12/24 00:48:41;;;;;;;44.40;22.42;;;-3.60;99.90;;;;;;5290854;28;20095;-72
2021/12/24 00:51:32;;;;;;;35.65;18.13;;;-3.60;99.90;;;;;;5290870;28;20533;-72
2021/12/24 00:56:59;;;;;;;32.92;16.88;;;-3.70;99.90;;;;;;5290821;28;20028;-72
2021/12/24 00:59:35;;;;;;;34.30;17.55;;;-3.60;99.90;;;;;;5289377;28;20039;-72
2021/12/24 01:02:17;;;;;;;35.72;17.88;;;-3.50;99.90;;;;;;5290442;28;20027;-72
2021/12/24 01:04:53;;;;;;;30.27;15.98;;;-3.50;99.90;;;;;;5290505;28;20501;-71
2021/12/24 01:07:24;;;;;;;25.42;13.48;;;-3.50;99.90;;;;;;5290621;28;20103;-72
2021/12/24 01:09:55;;;;;;;38.83;19.50;;;-3.10;99.90;;;;;;5289325;28;20542;-73
2021/12/24 01:12:26;;;;;;;48.67;22.55;;;-3.10;99.90;;;;;;5290354;28;20066;-77
2021/12/24 01:14:57;;;;;;;42.45;21.40;;;-3.40;99.90;;;;;;5290548;28;20055;-77
2021/12/24 01:20:12;;;;;;;91.13;40.53;;;-3.40;99.90;;;;;;5290311;28;20034;-71
2021/12/24 01:25:38;;;;;;;1061.07;531.50;;;-3.20;99.90;;;;;;5290416;28;20119;-71
2021/12/24 01:28:37;;;;;;;81.55;35.97;;;-3.20;99.90;;;;;;5290166;28;20032;-71
2021/12/24 01:42:42;;;;;;;152.13;65.60;;;-3.20;99.90;;;;;;5273799;28;20047;-72
2021/12/24 01:45:21;;;;;;;46.95;23.48;;;-3.20;99.90;;;;;;5290173;28;20031;-72
2021/12/24 01:47:54;;;;;;;110.07;51.45;;;-3.70;99.90;;;;;;5290129;28;20458;-74
2021/12/24 01:50:27;;;;;;;109.18;48.47;;;-3.60;99.90;;;;;;5289975;28;20374;-72
2021/12/24 01:52:59;;;;;;;31.25;15.70;;;-3.50;99.90;;;;;;5289896;28;20026;-76
2021/12/24 01:55:31;;;;;;;32.38;14.55;;;-3.30;99.90;;;;;;5289995;28;20020;-72
2021/12/24 01:58:02;;;;;;;26.33;13.57;;;-2.90;99.90;;;;;;5289932;28;20089;-72
2021/12/24 02:00:39;;;;;;;35.70;14.63;;;-2.60;99.90;;;;;;5289848;28;20019;-72
2021/12/24 02:03:12;;;;;;;30.67;16.25;;;-2.60;99.90;;;;;;5289876;28;20153;-72
2021/12/24 02:05:44;;;;;;;33.90;16.55;;;-2.60;99.90;;;;;;5289827;28;20028;-72
2021/12/24 02:08:16;;;;;;;30.98;14.60;;;-2.90;99.90;;;;;;5289721;28;20028;-71
2021/12/24 02:10:48;;;;;;;32.47;13.32;;;-2.70;99.90;;;;;;5289669;28;20053;-71
2021/12/24 02:13:19;;;;;;;26.45;13.02;;;-2.60;99.90;;;;;;5289615;28;20115;-72
2021/12/24 02:30:09;;;;;;;39.13;18.02;;;-2.80;99.90;;;;;;5293909;28;20506;-72
2021/12/24 02:32:42;;;;;;;29.33;13.32;;;-3.60;99.90;;;;;;5293625;28;20111;-72
2021/12/24 02:35:13;;;;;;;30.75;14.13;;;-3.30;99.90;;;;;;5293634;28;20031;-72
2021/12/24 02:37:45;;;;;;;26.88;13.07;;;-3.20;99.90;;;;;;5293580;28;20024;-72
2021/12/24 02:40:15;;;;;;;28.50;14.65;;;-3.20;99.90;;;;;;5293387;28;20028;-72
2021/12/24 02:42:51;;;;;;;23.73;13.20;;;-3.20;99.90;;;;;;5293545;28;20019;-71
2021/12/24 02:45:24;;;;;;;22.83;12.73;;;-3.30;99.90;;;;;;5293408;28;20043;-71
2021/12/24 02:48:12;;;;;;;30.83;13.70;;;-3.00;99.90;;;;;;5293390;28;20053;-72
2021/12/24 02:56:26;;;;;;;25.23;12.63;;;-3.40;99.90;;;;;;5293686;28;20436;-72
2021/12/24 02:58:59;;;;;;;24.30;13.38;;;-3.40;99.90;;;;;;5293196;28;20016;-72
2021/12/24 03:01:33;;;;;;;29.10;13.85;;;-3.00;99.90;;;;;;5293074;28;20033;-77
2021/12/24 03:04:05;;;;;;;27.67;13.52;;;-2.70;99.90;;;;;;5291827;28;20032;-72
2021/12/24 03:06:40;;;;;;;24.77;13.38;;;-3.00;99.90;;;;;;5293200;28;20499;-72
2021/12/24 03:09:14;;;;;;;26.30;13.48;;;-3.50;99.90;;;;;;5293007;28;20410;-72
2021/12/24 03:11:48;;;;;;;23.85;12.50;;;-3.60;99.90;;;;;;5293029;28;20038;-72
2021/12/24 03:14:20;;;;;;;26.65;13.68;;;-3.60;99.90;;;;;;5292718;28;20055;-72
2021/12/24 03:16:57;;;;;;;23.95;13.30;;;-3.50;99.90;;;;;;5292895;28;20023;-71
2021/12/24 03:19:32;;;;;;;23.15;12.00;;;-3.40;99.90;;;;;;5292916;28;20421;-71
2021/12/24 03:22:34;;;;;;;19.83;11.40;;;-3.50;99.90;;;;;;5292840;27;20027;-71
2021/12/24 03:25:05;;;;;;;26.88;14.00;;;-3.00;99.90;;;;;;5292498;28;20101;-77
2021/12/24 03:27:36;;;;;;;31.00;15.02;;;-3.40;99.90;;;;;;5292684;28;20432;-71
2021/12/24 03:30:08;;;;;;;24.67;12.85;;;-2.80;99.90;;;;;;5292527;28;20030;-72
2021/12/24 03:32:39;;;;;;;26.23;13.60;;;-2.90;99.90;;;;;;5292437;28;20019;-71
2021/12/24 03:35:10;;;;;;;33.30;16.35;;;-2.50;99.90;;;;;;5292462;28;20111;-72
2021/12/24 03:37:41;;;;;;;30.85;15.48;;;-2.70;99.90;;;;;;5291267;28;20115;-71
2021/12/24 03:40:11;;;;;;;51.53;16.23;;;-2.70;99.90;;;;;;5292108;28;20027;-71
2021/12/24 03:42:43;;;;;;;25.50;15.52;;;-3.00;99.90;;;;;;5292265;28;20024;-71
2021/12/24 03:45:37;;;;;;;28.80;15.25;;;-2.60;99.90;;;;;;5292151;28;20043;-71
2021/12/24 03:48:22;;;;;;;32.45;16.75;;;-2.60;99.90;;;;;;5292193;28;20031;-72
2021/12/24 03:51:21;;;;;;;32.97;15.65;;;-2.30;99.90;;;;;;5290947;28;20513;-71
2021/12/24 03:56:41;;;;;;;30.48;15.82;;;-2.40;99.90;;;;;;5292141;28;20429;-71
2021/12/24 03:59:13;;;;;;;30.40;15.55;;;-2.20;99.90;;;;;;5291650;28;20029;-72
2021/12/24 04:01:43;;;;;;;28.50;14.35;;;-2.20;99.90;;;;;;5291870;28;20020;-72
2021/12/24 04:04:15;;;;;;;30.35;14.27;;;-1.90;99.90;;;;;;5291711;28;20467;-71
2021/12/24 04:06:47;;;;;;;36.08;17.20;;;-1.80;99.90;;;;;;5291825;28;20028;-72
2021/12/24 04:09:18;;;;;;;31.30;16.25;;;-1.30;99.90;;;;;;5291709;28;20020;-71
2021/12/24 04:11:49;;;;;;;32.20;17.05;;;-1.50;99.90;;;;;;5291542;28;20030;-71
2021/12/24 04:14:19;;;;;;;32.33;17.00;;;-1.60;99.90;;;;;;5291375;28;20097;-72
2021/12/24 04:16:50;;;;;;;36.53;17.13;;;-1.60;99.90;;;;;;5291704;28;20023;-71
2021/12/24 04:24:54;;;;;;;26.90;16.17;;;-0.80;99.90;;;;;;5291474;28;20033;-72
2021/12/24 04:27:27;;;;;;;27.35;14.80;;;-0.90;99.90;;;;;;5291464;28;20027;-71
2021/12/24 04:30:07;;;;;;;27.50;16.65;;;-0.80;99.90;;;;;;5291144;27;20023;-71
2021/12/24 04:52:05;;;;;;;35.65;18.10;;;-0.80;99.90;;;;;;5291218;27;20042;-78
2021/12/24 05:03:08;;;;;;;43.08;19.48;;;-0.80;99.90;;;;;;5300676;27;20031;-75
2021/12/24 05:08:18;;;;;;;37.38;20.45;;;-0.50;99.90;;;;;;5300120;27;20012;-78
2021/12/24 05:10:51;;;;;;;36.95;18.05;;;-0.20;99.90;;;;;;5297687;27;20458;-70
2021/12/24 05:13:23;;;;;;;35.47;18.17;;;-0.10;99.90;;;;;;5298596;27;20028;-72
2021/12/24 05:16:04;;;;;;;35.08;18.70;;;-0.50;99.90;;;;;;5302878;27;20030;-71
2021/12/24 05:19:02;;;;;;;33.05;16.77;;;-0.50;99.90;;;;;;5298897;27;20500;-71
2021/12/24 05:21:36;;;;;;;29.38;14.88;;;0.30;99.90;;;;;;5295383;27;20019;-78
2021/12/24 05:24:14;;;;;;;30.23;14.82;;;0.50;99.90;;;;;;5297161;27;20020;-77
2021/12/24 05:27:00;;;;;;;36.05;17.23;;;0.30;99.90;;;;;;5294998;27;20042;-71
2021/12/24 05:29:31;;;;;;;31.90;15.90;;;-0.10;99.90;;;;;;5297846;27;20012;-70
2021/12/24 05:32:03;;;;;;;28.98;16.30;;;0.40;99.90;;;;;;5298359;27;20042;-76
2021/12/24 05:34:34;;;;;;;29.55;15.00;;;0.60;99.90;;;;;;5298768;27;20147;-76
2021/12/24 05:37:04;;;;;;;34.50;16.02;;;0.70;99.90;;;;;;5296064;27;20110;-72
2021/12/24 05:39:35;;;;;;;25.52;15.30;;;0.30;99.90;;;;;;5285129;27;20020;-71
2021/12/24 05:42:07;;;;;;;30.48;15.93;;;0.60;99.90;;;;;;5288008;28;20032;-71
2021/12/24 05:44:38;;;;;;;29.17;15.50;;;0.40;99.90;;;;;;5289873;28;20031;-71
2021/12/24 05:47:09;;;;;;;29.70;16.17;;;0.20;99.90;;;;;;5277330;28;20040;-71
2021/12/24 05:49:41;;;;;;;29.33;14.70;;;0.30;99.90;;;;;;5278783;28;20012;-71
2021/12/24 05:52:12;;;;;;;29.80;15.00;;;0.60;99.90;;;;;;5281618;28;20058;-71
2021/12/24 05:54:43;;;;;;;26.80;13.73;;;1.00;99.90;;;;;;5279741;28;20016;-74
2021/12/24 05:57:14;;;;;;;23.38;13.77;;;0.80;99.90;;;;;;5282077;28;20036;-77
2021/12/24 05:59:45;;;;;;;21.52;10.55;;;1.00;99.90;;;;;;5281747;28;20023;-71
2021/12/24 06:02:16;;;;;;;26.80;14.85;;;1.20;99.90;;;;;;5286392;28;20028;-73
2021/12/24 06:04:48;;;;;;;24.77;13.98;;;1.30;99.90;;;;;;5289498;27;20035;-74
2021/12/24 06:07:20;;;;;;;24.60;13.35;;;1.40;99.90;;;;;;5289841;28;20032;-77
2021/12/24 06:09:53;;;;;;;21.98;11.85;;;1.20;99.90;;;;;;5289588;28;20031;-73
2021/12/24 06:12:25;;;;;;;21.10;13.00;;;1.50;99.90;;;;;;5292017;28;20379;-72
2021/12/24 06:15:05;;;;;;;19.00;11.50;;;1.60;99.90;;;;;;5290490;28;20047;-75
2021/12/24 06:17:38;;;;;;;17.73;11.82;;;1.70;99.90;;;;;;5291863;28;20012;-77
2021/12/24 06:20:12;;;;;;;15.38;10.15;;;1.70;99.90;;;;;;5290876;28;20031;-77
2021/12/24 06:22:44;;;;;;;15.95;8.88;;;2.00;99.90;;;;;;5290918;28;20012;-77
2021/12/24 06:25:18;;;;;;;16.85;9.70;;;2.00;99.90;;;;;;5292154;28;20487;-76
2021/12/24 06:27:50;;;;;;;16.23;10.02;;;1.70;99.90;;;;;;5291466;28;20493;-76
2021/12/24 06:30:27;;;;;;;18.75;10.00;;;1.70;99.90;;;;;;5291656;28;20053;-76
2021/12/24 06:33:00;;;;;;;17.42;9.50;;;1.70;99.90;;;;;;5291664;28;20020;-75
2021/12/24 06:35:32;;;;;;;16.05;9.02;;;1.80;99.90;;;;;;5291546;28;20016;-72
2021/12/24 06:38:05;;;;;;;18.23;9.10;;;2.00;99.90;;;;;;5291649;28;20110;-71
2021/12/24 06:40:38;;;;;;;22.17;9.48;;;1.90;99.90;;;;;;5290782;28;20493;-72
2021/12/24 06:43:10;;;;;;;17.77;10.27;;;2.00;99.90;;;;;;5291732;28;20034;-71
2021/12/24 06:45:42;;;;;;;17.27;9.43;;;1.90;99.90;;;;;;5290891;28;20380;-71
2021/12/24 06:48:15;;;;;;;13.60;8.68;;;2.10;99.90;;;;;;5291606;27;20015;-71
2021/12/24 06:50:48;;;;;;;16.63;8.88;;;2.20;99.90;;;;;;5290732;28;20027;-71
2021/12/24 06:53:20;;;;;;;16.90;9.18;;;2.20;99.90;;;;;;5291277;28;20016;-76
2021/12/24 06:55:52;;;;;;;15.75;9.18;;;2.20;99.90;;;;;;5295507;27;20035;-76
2021/12/24 06:58:27;;;;;;;17.42;9.15;;;2.10;99.90;;;;;;5295772;27;20028;-76
2021/12/24 07:00:59;;;;;;;16.95;10.00;;;2.20;99.90;;;;;;5293134;27;20024;-76
2021/12/24 07:03:31;;;;;;;19.75;9.45;;;2.50;99.90;;;;;;5290928;28;20024;-71
2021/12/24 07:06:04;;;;;;;14.02;8.60;;;2.70;99.90;;;;;;5290928;28;20425;-72
2021/12/24 07:08:37;;;;;;;14.65;9.23;;;2.70;99.90;;;;;;5290460;28;20554;-73
2021/12/24 07:11:09;;;;;;;12.55;7.93;;;2.90;99.90;;;;;;5290851;28;20041;-72
2021/12/24 07:13:41;;;;;;;13.30;7.72;;;3.00;99.90;;;;;;5291362;27;20096;-72
2021/12/24 07:16:13;;;;;;;12.32;7.70;;;2.90;99.90;;;;;;5286845;28;20406;-76
2021/12/24 07:18:45;;;;;;;11.60;6.65;;;3.20;99.90;;;;;;5290158;28;20148;-74
2021/12/24 07:21:17;;;;;;;17.10;6.97;;;3.30;99.90;;;;;;5291157;27;20028;-72
2021/12/24 07:23:50;;;;;;;11.18;6.15;;;3.40;99.90;;;;;;5290281;28;20543;-71
2021/12/24 07:26:22;;;;;;;11.90;6.25;;;3.70;99.90;;;;;;5285927;28;20028;-71
2021/12/24 07:28:54;;;;;;;9.45;5.82;;;3.80;99.90;;;;;;5284182;28;20032;-72
2021/12/24 07:31:26;;;;;;;12.38;6.53;;;3.80;99.90;;;;;;5293419;27;20102;-71
2021/12/24 07:33:58;;;;;;;12.85;6.60;;;3.90;99.90;;;;;;5290300;28;20043;-71
2021/12/24 07:36:31;;;;;;;11.43;6.57;;;4.00;99.90;;;;;;5290132;28;20035;-71
2021/12/24 07:39:04;;;;;;;9.55;6.20;;;4.10;99.90;;;;;;5285302;28;20360;-76
2021/12/24 07:41:36;;;;;;;15.30;8.68;;;4.20;99.90;;;;;;5288410;28;20039;-77
2021/12/24 07:44:09;;;;;;;10.77;6.93;;;4.40;99.90;;;;;;5287828;27;20055;-76
2021/12/24 07:46:54;;;;;;;10.88;7.10;;;4.40;99.90;;;;;;5291593;28;20039;-71
2021/12/24 07:52:09;;;;;;;12.52;6.50;;;4.80;99.90;;;;;;5292070;28;20164;-72
2021/12/24 07:54:49;;;;;;;12.30;6.93;;;4.90;99.90;;;;;;5290829;28;20038;-71
2021/12/24 07:57:21;;;;;;;14.20;7.05;;;4.90;99.90;;;;;;5292122;28;20046;-70
2021/12/24 07:59:52;;;;;;;12.98;6.75;;;4.70;99.90;;;;;;5291504;28;20032;-70
2021/12/24 08:02:26;;;;;;;12.77;6.68;;;4.60;99.90;;;;;;5290205;28;20076;-71
2021/12/24 08:04:58;;;;;;;14.02;6.22;;;4.50;99.90;;;;;;5291631;28;20035;-72
2021/12/24 08:07:30;;;;;;;12.80;6.68;;;4.50;99.90;;;;;;5291650;28;20378;-72
2021/12/24 08:10:02;;;;;;;11.85;6.43;;;4.50;99.90;;;;;;5291514;28;20100;-74
2021/12/24 08:12:34;;;;;;;8.63;5.75;;;4.50;99.90;;;;;;5291569;28;20047;-72
2021/12/24 08:15:07;;;;;;;13.60;6.97;;;4.60;99.90;;;;;;5290874;28;20055;-72
2021/12/24 08:17:39;;;;;;;10.75;6.30;;;4.60;99.90;;;;;;5291693;28;20463;-73
2021/12/24 08:20:13;;;;;;;12.23;5.53;;;4.60;99.90;;;;;;5291485;28;20018;-71
2021/12/24 08:22:45;;;;;;;10.27;6.35;;;4.70;99.90;;;;;;5290878;28;20018;-74
2021/12/24 08:25:19;;;;;;;10.48;6.18;;;4.80;99.90;;;;;;5297273;27;20118;-72
2021/12/24 08:27:51;;;;;;;11.20;6.57;;;4.80;99.90;;;;;;5312399;27;20019;-72
2021/12/24 08:30:23;;;;;;;9.02;6.35;;;4.80;99.90;;;;;;5310334;27;20076;-72
2021/12/24 08:32:56;;;;;;;12.00;6.57;;;4.90;99.90;;;;;;5290760;28;20098;-73
2021/12/24 08:35:29;;;;;;;12.05;7.20;;;5.00;99.90;;;;;;5291310;28;20023;-77
2021/12/24 08:38:01;;;;;;;18.67;7.63;;;5.00;99.90;;;;;;5291060;28;20023;-74
2021/12/24 08:40:37;;;;;;;12.02;7.05;;;5.00;99.90;;;;;;5290822;28;20025;-75
2021/12/24 08:43:12;;;;;;;16.00;6.72;;;5.10;99.90;;;;;;5296075;27;20027;-73
2021/12/24 08:45:44;;;;;;;10.15;6.22;;;5.20;99.90;;;;;;5290709;28;20078;-73
2021/12/24 08:48:16;;;;;;;13.80;6.57;;;5.40;99.90;;;;;;5290850;28;20020;-73
2021/12/24 08:50:48;;;;;;;11.13;6.78;;;5.30;99.90;;;;;;5290673;28;20028;-73
2021/12/24 08:53:23;;;;;;;10.38;6.43;;;5.50;99.90;;;;;;5290648;27;20055;-73
2021/12/24 08:55:55;;;;;;;10.38;6.43;;;5.70;99.90;;;;;;5290742;28;20033;-73
2021/12/24 08:58:27;;;;;;;10.00;6.65;;;6.10;99.90;;;;;;5290601;28;20027;-75
2021/12/24 09:01:01;;;;;;;10.98;5.97;;;6.30;99.90;;;;;;5297175;27;20019;-75
2021/12/24 09:03:33;;;;;;;12.98;6.45;;;6.60;99.90;;;;;;5311654;27;20027;-72
2021/12/24 09:06:05;;;;;;;10.82;7.38;;;6.50;99.90;;;;;;5311917;27;20121;-71
2021/12/24 09:08:42;;;;;;;10.25;6.28;;;6.30;99.90;;;;;;5311910;27;20067;-72
2021/12/24 09:11:14;;;;;;;10.18;5.82;;;6.50;99.90;;;;;;5311728;27;20035;-73
2021/12/24 09:13:46;;;;;;;10.35;5.68;;;7.10;99.90;;;;;;5304592;27;20047;-73
2021/12/24 09:16:18;;;;;;;9.25;6.13;;;7.20;99.90;;;;;;5310944;27;20051;-72
2021/12/24 09:18:59;;;;;;;12.20;5.90;;;7.10;99.90;;;;;;5311899;27;20543;-73
2021/12/24 09:21:33;;;;;;;7.57;5.38;;;7.10;99.90;;;;;;5311574;27;20065;-72
2021/12/24 09:24:07;;;;;;;8.48;5.32;;;7.80;99.90;;;;;;5311487;27;20027;-72
2021/12/24 09:26:40;;;;;;;9.77;4.97;;;7.30;99.90;;;;;;5311609;27;20027;-71
2021/12/24 09:29:12;;;;;;;9.20;6.28;;;6.90;99.90;;;;;;5311362;27;20058;-72
2021/12/24 09:31:44;;;;;;;12.65;5.90;;;6.90;99.90;;;;;;5298448;27;20106;-72
2021/12/24 09:34:16;;;;;;;12.30;6.47;;;7.10;99.90;;;;;;5289232;28;20024;-72
2021/12/24 09:36:48;;;;;;;12.07;5.72;;;7.20;99.90;;;;;;5289009;28;20028;-72
2021/12/24 09:39:21;;;;;;;9.82;5.75;;;8.30;99.90;;;;;;5287162;28;20031;-71
2021/12/24 09:41:53;;;;;;;7.85;5.18;;;8.00;99.90;;;;;;5288278;28;20019;-72
2021/12/24 09:44:25;;;;;;;9.65;5.68;;;7.90;99.90;;;;;;5289444;28;20126;-72
2021/12/24 09:46:57;;;;;;;12.80;5.90;;;8.00;99.90;;;;;;5289682;28;20085;-73
2021/12/24 09:49:29;;;;;;;9.30;5.82;;;8.10;99.90;;;;;;5289474;28;20020;-73
2021/12/24 09:52:04;;;;;;;10.05;5.13;;;8.30;99.90;;;;;;5289544;28;20028;-72
2021/12/24 09:54:36;;;;;;;11.00;5.20;;;7.90;99.90;;;;;;5289489;28;20050;-72
2021/12/24 09:57:08;;;;;;;10.90;5.75;;;7.70;99.90;;;;;;5289557;28;20046;-72
2021/12/24 09:59:41;;;;;;;12.95;5.97;;;8.10;99.90;;;;;;5289601;28;20027;-72
2021/12/24 10:02:17;;;;;;;8.13;4.88;;;7.70;99.90;;;;;;5289221;28;20020;-71
2021/12/24 10:04:49;;;;;;;7.95;5.30;;;7.80;99.90;;;;;;5289557;28;20397;-72
2021/12/24 10:07:24;;;;;;;10.00;6.43;;;8.20;99.90;;;;;;5285620;28;20031;-73
2021/12/24 10:10:07;;;;;;;10.80;5.22;;;8.70;99.90;;;;;;5268747;28;20375;-73
2021/12/24 10:12:39;;;;;;;10.45;5.78;;;7.60;99.90;;;;;;5284844;28;20066;-72
2021/12/24 10:15:11;;;;;;;11.55;5.68;;;7.60;99.90;;;;;;5290839;28;20063;-71
2021/12/24 10:17:45;;;;;;;7.68;4.60;;;7.40;99.90;;;;;;5294374;28;20019;-73
2021/12/24 10:20:20;;;;;;;12.65;6.57;;;7.40;99.90;;;;;;5299677;28;20423;-72
2021/12/24 10:22:54;;;;;;;7.60;5.07;;;7.60;99.90;;;;;;5294135;28;20459;-72
2021/12/24 10:25:30;;;;;;;14.82;6.88;;;7.50;99.90;;;;;;5299823;28;20066;-72
2021/12/24 10:28:12;;;;;;;9.35;5.05;;;7.70;99.90;;;;;;5296798;28;20471;-73
2021/12/24 10:30:46;;;;;;;6.72;4.85;;;7.50;99.90;;;;;;5300041;28;20507;-74
2021/12/24 10:33:18;;;;;;;8.98;5.50;;;7.40;99.90;;;;;;5300935;27;20023;-74
2021/12/24 10:36:03;;;;;;;10.40;6.38;;;7.40;99.90;;;;;;5294354;27;20077;-75
2021/12/24 10:38:35;;;;;;;8.68;5.18;;;7.40;99.90;;;;;;5291135;28;20051;-74
2021/12/24 10:41:08;;;;;;;11.23;5.57;;;7.50;99.90;;;;;;5297914;27;20089;-73
2021/12/24 10:43:42;;;;;;;12.38;7.72;;;7.50;99.90;;;;;;5299270;28;20036;-71
2021/12/24 10:46:24;;;;;;;10.93;7.03;;;7.20;99.90;;;;;;5299367;27;20057;-72
2021/12/24 10:49:13;;;;;;;14.93;7.90;;;7.40;99.90;;;;;;5302095;27;20022;-71
2021/12/24 10:52:10;;;;;;;13.63;8.25;;;7.30;99.90;;;;;;5293463;27;20113;-74
2021/12/24 10:55:04;;;;;;;19.00;12.40;;;7.30;99.90;;;;;;5293869;27;20024;-73
2021/12/24 10:57:39;;;;;;;19.17;10.77;;;7.30;99.90;;;;;;5301301;27;20020;-73
2021/12/24 11:00:33;;;;;;;24.25;11.02;;;7.90;99.90;;;;;;5303585;27;20465;-72
2021/12/24 11:03:16;;;;;;;30.35;14.48;;;7.90;99.90;;;;;;5297422;27;20034;-72
2021/12/24 11:05:54;;;;;;;21.52;11.25;;;8.30;99.90;;;;;;5314341;27;20418;-72
2021/12/24 11:08:27;;;;;;;19.63;10.52;;;8.70;99.90;;;;;;5314276;27;20527;-72
2021/12/24 11:11:04;;;;;;;22.63;11.52;;;8.70;99.90;;;;;;5313949;27;20023;-71
2021/12/24 11:13:41;;;;;;;15.68;9.77;;;8.60;99.90;;;;;;5313765;27;20039;-72
2021/12/24 11:16:19;;;;;;;16.63;9.23;;;8.30;99.90;;;;;;5313828;27;20340;-73
2021/12/24 11:19:04;;;;;;;16.77;10.07;;;8.70;99.90;;;;;;5313972;27;20031;-72
2021/12/24 11:21:36;;;;;;;16.75;9.02;;;8.30;99.90;;;;;;5314058;27;20027;-72
2021/12/24 11:24:08;;;;;;;15.27;7.97;;;8.10;99.90;;;;;;5313865;27;20027;-72
2021/12/24 11:26:50;;;;;;;17.58;9.85;;;8.70;99.90;;;;;;5313793;27;20027;-72
2021/12/24 11:29:23;;;;;;;19.02;9.32;;;8.50;99.90;;;;;;5313867;27;20450;-74
2021/12/24 11:31:56;;;;;;;16.95;10.18;;;8.30;99.90;;;;;;5298968;27;20028;-72
2021/12/24 11:34:28;;;;;;;17.58;10.02;;;8.60;99.90;;;;;;5292530;28;20020;-72
2021/12/24 11:37:01;;;;;;;16.58;9.85;;;8.40;99.90;;;;;;5292302;28;20084;-72
2021/12/24 11:39:34;;;;;;;18.02;11.73;;;8.70;99.90;;;;;;5292544;28;20094;-72
2021/12/24 11:42:10;;;;;;;18.25;10.55;;;8.50;99.90;;;;;;5292252;28;20036;-72
2021/12/24 11:44:43;;;;;;;15.38;8.52;;;8.60;99.90;;;;;;5292218;28;20036;-73
2021/12/24 11:47:15;;;;;;;15.63;8.32;;;9.00;99.90;;;;;;5292296;28;20467;-73
2021/12/24 11:49:52;;;;;;;14.55;8.38;;;9.10;99.90;;;;;;5291270;28;20019;-72
2021/12/24 11:52:26;;;;;;;14.63;7.60;;;9.00;99.90;;;;;;5291737;28;20023;-73
2021/12/24 11:54:59;;;;;;;13.88;6.80;;;9.40;99.90;;;;;;5291710;28;20072;-72
2021/12/24 11:57:32;;;;;;;9.18;5.80;;;9.20;99.90;;;;;;5290869;28;20531;-73
2021/12/24 12:00:13;;;;;;;9.63;6.07;;;8.90;99.90;;;;;;5291997;28;20030;-73
2021/12/24 12:02:46;;;;;;;10.48;5.75;;;9.20;99.90;;;;;;5291769;28;20038;-72
2021/12/24 12:05:33;;;;;;;7.43;4.45;;;9.10;99.90;;;;;;5291764;27;20077;-72
2021/12/24 12:08:26;;;;;;;8.57;5.40;;;8.80;99.90;;;;;;5306788;27;20031;-72
2021/12/24 12:11:00;;;;;;;11.48;6.55;;;8.80;99.90;;;;;;5312869;27;20516;-72
2021/12/24 12:14:07;;;;;;;9.45;4.95;;;8.60;99.90;;;;;;5312557;27;20076;-73
2021/12/24 12:16:54;;;;;;;12.35;5.95;;;8.70;99.90;;;;;;5312881;27;20058;-74
2021/12/24 12:22:32;;;;;;;10.43;5.30;;;8.90;99.90;;;;;;5312570;27;20026;-72
2021/12/24 12:25:09;;;;;;;9.45;5.68;;;8.80;99.90;;;;;;5312588;27;20035;-75
2021/12/24 12:27:44;;;;;;;13.15;5.78;;;8.70;99.90;;;;;;5312650;27;20459;-72
2021/12/24 12:30:36;;;;;;;17.15;5.95;;;8.30;99.90;;;;;;5301543;27;20031;-74
2021/12/24 12:33:15;;;;;;;11.15;5.63;;;8.60;99.90;;;;;;5279443;28;20039;-74
2021/12/24 12:36:03;;;;;;;8.15;5.15;;;8.30;99.90;;;;;;5275754;28;20123;-72
2021/12/24 12:38:40;;;;;;;9.55;6.00;;;8.30;99.90;;;;;;5284278;28;20032;-74
2021/12/24 12:41:38;;;;;;;11.60;6.20;;;8.20;99.90;;;;;;5277706;28;20442;-77
2021/12/24 12:44:14;;;;;;;9.52;5.30;;;8.20;99.90;;;;;;5290040;27;20059;-76
2021/12/24 12:46:50;;;;;;;12.23;6.10;;;8.20;99.90;;;;;;5303651;27;20040;-73
2021/12/24 12:49:36;;;;;;;9.98;5.32;;;8.10;99.90;;;;;;5282531;28;20023;-74
2021/12/24 12:52:32;;;;;;;8.15;4.82;;;8.20;99.90;;;;;;5280378;28;20032;-76
2021/12/24 12:55:05;;;;;;;12.13;6.10;;;8.30;99.90;;;;;;5287815;28;20036;-75
2021/12/24 12:57:40;;;;;;;15.52;6.07;;;8.20;99.90;;;;;;5288883;28;20034;-74
2021/12/24 13:00:20;;;;;;;8.27;5.15;;;8.20;99.90;;;;;;5288406;28;20023;-73
2021/12/24 13:03:06;;;;;;;13.98;6.47;;;8.10;99.90;;;;;;5285492;28;20026;-75
2021/12/24 13:05:45;;;;;;;10.60;5.28;;;8.10;99.90;;;;;;5282930;28;20050;-75
2021/12/24 13:08:21;;;;;;;9.95;5.53;;;8.20;99.90;;;;;;5282093;28;20023;-75
2021/12/24 13:11:02;;;;;;;14.38;5.00;;;8.40;99.90;;;;;;5284407;28;20015;-75
2021/12/24 13:13:55;;;;;;;11.90;5.30;;;8.50;99.90;;;;;;5282463;28;20039;-73
2021/12/24 13:16:34;;;;;;;25.77;11.95;;;8.40;99.90;;;;;;5300902;27;20096;-72
2021/12/24 13:24:58;;;;;;;7.22;4.78;;;8.50;99.90;;;;;;5289548;28;20387;-75
2021/12/24 13:27:37;;;;;;;8.70;4.75;;;8.50;99.90;;;;;;5289140;28;20031;-76
2021/12/24 13:30:13;;;;;;;14.32;5.15;;;8.40;99.90;;;;;;5289410;28;20485;-75
2021/12/24 13:32:52;;;;;;;10.70;5.00;;;8.50;99.90;;;;;;5286426;28;20107;-76
2021/12/24 13:35:37;;;;;;;10.43;5.22;;;8.50;99.90;;;;;;5289479;28;20068;-75
2021/12/24 13:38:18;;;;;;;8.45;5.00;;;8.40;99.90;;;;;;5289326;28;20016;-75
2021/12/24 13:40:50;;;;;;;10.18;5.60;;;8.40;99.90;;;;;;5286466;28;20064;-76
2021/12/24 13:43:24;;;;;;;7.55;4.70;;;8.50;99.90;;;;;;5284753;28;20054;-75
2021/12/24 13:45:58;;;;;;;10.45;5.47;;;8.40;99.90;;;;;;5289021;28;20027;-75
2021/12/24 13:48:43;;;;;;;10.23;5.82;;;8.50;99.90;;;;;;5289119;28;20016;-75
2021/12/24 13:56:49;;;;;;;10.73;5.82;;;8.50;99.90;;;;;;5287617;28;20020;-72
2021/12/24 13:59:24;;;;;;;10.90;5.22;;;8.60;99.90;;;;;;5288997;28;20035;-72
2021/12/24 14:01:57;;;;;;;8.55;5.50;;;8.50;99.90;;;;;;5288586;28;20019;-74
2021/12/24 14:04:30;;;;;;;12.13;5.32;;;8.40;99.90;;;;;;5288933;28;20027;-72
2021/12/24 14:07:03;;;;;;;10.30;5.95;;;8.30;99.90;;;;;;5288859;28;20039;-73
2021/12/24 14:09:34;;;;;;;9.80;5.88;;;8.30;99.90;;;;;;5287927;28;20020;-73
2021/12/24 14:12:08;;;;;;;14.88;6.13;;;8.30;99.90;;;;;;5289005;28;20134;-72
2021/12/24 14:15:06;;;;;;;11.18;6.45;;;8.30;99.90;;;;;;5288206;28;20113;-73
2021/12/24 14:18:17;;;;;;;13.63;6.47;;;8.20;99.90;;;;;;5288350;28;20110;-73
2021/12/24 14:23:34;;;;;;;12.20;6.07;;;8.20;99.90;;;;;;5290423;28;20578;-74
2021/12/24 14:26:05;;;;;;;16.13;6.55;;;8.20;99.90;;;;;;5292695;28;20126;-72
2021/12/24 14:28:38;;;;;;;11.80;5.80;;;8.20;99.90;;;;;;5292490;28;20367;-73
2021/12/24 14:31:11;;;;;;;11.63;6.07;;;8.20;99.90;;;;;;5292502;28;20047;-73
2021/12/24 14:33:47;;;;;;;11.68;6.18;;;8.10;99.90;;;;;;5292804;27;20046;-72
2021/12/24 14:36:21;;;;;;;16.70;7.55;;;8.10;99.90;;;;;;5289227;28;20072;-72
2021/12/24 14:38:53;;;;;;;11.15;6.70;;;8.20;99.90;;;;;;5292212;28;20096;-72
2021/12/24 14:41:25;;;;;;;10.15;6.70;;;8.20;99.90;;;;;;5291971;28;20605;-72
2021/12/24 14:43:57;;;;;;;17.05;9.40;;;8.20;99.90;;;;;;5292490;28;20028;-72
2021/12/24 14:46:29;;;;;;;20.40;9.07;;;8.30;99.90;;;;;;5292568;28;20100;-72
2021/12/24 14:49:06;;;;;;;13.07;6.35;;;8.20;99.90;;;;;;5292461;28;20020;-72
2021/12/24 14:51:38;;;;;;;10.93;7.40;;;8.40;99.90;;;;;;5292052;28;20038;-72
2021/12/24 14:54:10;;;;;;;13.68;8.05;;;8.10;99.90;;;;;;5292660;28;20100;-73
2021/12/24 14:56:42;;;;;;;14.48;6.28;;;8.30;99.90;;;;;;5292126;28;20031;-77
2021/12/24 14:59:15;;;;;;;14.70;5.72;;;8.30;99.90;;;;;;5292133;28;20020;-77
2021/12/24 15:01:51;;;;;;;10.95;5.90;;;8.40;99.90;;;;;;5291905;28;20032;-77
2021/12/24 15:04:23;;;;;;;10.95;5.22;;;8.30;99.90;;;;;;5291920;28;20028;-76
2021/12/24 15:06:55;;;;;;;13.88;7.50;;;8.30;99.90;;;;;;5292730;28;20459;-75
2021/12/24 15:09:29;;;;;;;15.30;5.95;;;8.40;99.90;;;;;;5291041;28;20015;-76
2021/12/24 15:12:22;;;;;;;10.43;5.93;;;8.30;99.90;;;;;;5289862;28;20471;-75
2021/12/24 15:14:55;;;;;;;11.70;5.90;;;8.20;99.90;;;;;;5292537;28;20047;-75